createdAt,value
2023-03-10T00:04:57.976Z,55.91
2023-03-10T00:10:22.544Z,58.16
2023-03-10T00:15:46.494Z,60.61
2023-03-10T00:21:16.055Z,72.18
2023-03-10T00:26:41.454Z,75.99
2023-03-10T00:32:06.757Z,72.07
2023-03-10T00:37:36.183Z,68.69
2023-03-10T00:43:00.538Z,66.09
2023-03-10T00:48:24.850Z,64.50
2023-03-10T00:53:49.535Z,63.88
2023-03-10T00:59:15.307Z,63.06
2023-03-10T01:04:39.612Z,62.87
2023-03-10T01:10:03.912Z,63.19
2023-03-10T01:15:28.222Z,63.18
2023-03-10T01:20:52.323Z,62.78
2023-03-10T01:26:18.586Z,62.32
2023-03-10T01:31:44.275Z,62.45
2023-03-10T01:37:08.890Z,62.27
2023-03-10T01:42:32.893Z,61.98
2023-03-10T01:47:57.661Z,61.69
2023-03-10T01:53:22.968Z,61.25
2023-03-10T01:58:47.875Z,60.81
2023-03-10T02:04:23.801Z,60.75
2023-03-10T02:09:49.947Z,60.43
2023-03-10T02:15:14.441Z,59.96
2023-03-10T02:21:10.287Z,59.57
2023-03-10T02:27:11.928Z,53.01
2023-03-10T02:32:41.611Z,51.46
2023-03-10T02:38:07.503Z,53.71
2023-03-10T02:43:35.237Z,56.23
2023-03-10T02:49:07.796Z,58.69
2023-03-10T02:54:35.597Z,70.54
2023-03-10T02:59:59.933Z,72.83
2023-03-10T03:05:24.937Z,69.26
2023-03-10T03:10:51.175Z,66.37
2023-03-10T03:16:16.049Z,64.54
2023-03-10T03:21:41.573Z,62.83
2023-03-10T03:27:06.457Z,61.52
2023-03-10T03:32:31.671Z,60.35
2023-03-10T03:37:56.583Z,55.08
2023-03-10T03:43:22.459Z,52.56
2023-03-10T03:48:46.776Z,54.66
2023-03-10T03:54:11.119Z,58.65
2023-03-10T03:59:36.390Z,69.11
2023-03-10T04:05:01.125Z,70.53
2023-03-10T04:10:27.348Z,67.12
2023-03-10T04:16:00.113Z,64.40
2023-03-10T04:21:30.049Z,62.40
2023-03-10T04:26:55.062Z,61.40
2023-03-10T04:32:20.105Z,60.67
2023-03-10T04:37:45.109Z,59.98
2023-03-10T04:43:09.845Z,55.35
2023-03-10T04:48:36.521Z,53.15
2023-03-10T04:54:01.452Z,56.15
2023-03-10T04:59:28.284Z,59.85
2023-03-10T05:04:53.702Z,69.78
2023-03-10T05:10:18.233Z,71.59
2023-03-10T05:15:43.464Z,68.10
2023-03-10T05:21:08.691Z,65.86
2023-03-10T05:26:34.922Z,64.37
2023-03-10T05:32:00.220Z,62.82
2023-03-10T05:37:29.501Z,61.78
2023-03-10T05:42:53.672Z,60.85
2023-03-10T05:48:17.797Z,60.54
2023-03-10T05:53:44.030Z,60.29
2023-03-10T05:59:12.515Z,59.93
2023-03-10T06:04:37.382Z,55.02
2023-03-10T06:10:01.856Z,53.69
2023-03-10T06:15:26.342Z,57.95
2023-03-10T06:20:54.102Z,68.08
2023-03-10T06:26:19.618Z,67.95
2023-03-10T06:31:44.509Z,65.01
2023-03-10T06:37:08.881Z,63.29
2023-03-10T06:42:35.268Z,62.00
2023-03-10T06:47:59.382Z,60.82
2023-03-10T06:53:27.877Z,60.03
2023-03-10T06:58:53.101Z,55.84
2023-03-10T07:04:17.317Z,57.04
2023-03-10T07:09:41.902Z,65.64
2023-03-10T07:15:06.725Z,64.59
2023-03-10T07:20:31.065Z,63.00
2023-03-10T07:25:57.740Z,61.83
2023-03-10T07:31:24.041Z,61.12
2023-03-10T07:36:48.542Z,61.06
2023-03-10T07:42:12.900Z,60.77
2023-03-10T07:47:37.219Z,60.86
2023-03-10T07:53:01.733Z,61.42
2023-03-10T07:58:26.459Z,61.79
2023-03-10T08:03:52.056Z,61.75
2023-03-10T08:09:16.661Z,61.80
2023-03-10T08:14:41.450Z,61.64
2023-03-10T08:20:07.022Z,61.51
2023-03-10T08:25:31.363Z,61.41
2023-03-10T08:31:04.073Z,61.26
2023-03-10T08:36:32.341Z,60.59
2023-03-10T08:41:56.906Z,59.82
2023-03-10T08:47:21.458Z,59.62
2023-03-10T08:52:45.901Z,63.36
2023-03-10T08:58:09.997Z,61.51
2023-03-10T09:03:43.278Z,59.39
2023-03-10T09:09:10.777Z,61.22
2023-03-10T09:14:36.092Z,62.38
2023-03-10T09:20:00.101Z,60.33
2023-03-10T09:25:24.577Z,59.60
2023-03-10T09:30:48.642Z,62.92
2023-03-10T09:36:12.815Z,60.66
2023-03-10T09:42:26.016Z,59.91
2023-03-10T09:47:59.613Z,62.34
2023-03-10T09:53:45.222Z,59.24
2023-03-10T09:59:36.243Z,62.59
2023-03-10T10:05:07.488Z,61.72
2023-03-10T10:10:36.922Z,58.72
2023-03-10T10:16:32.042Z,61.95
2023-03-10T10:22:07.457Z,60.57
2023-03-10T10:27:32.547Z,58.79
2023-03-10T10:32:59.510Z,61.19
2023-03-10T10:38:30.513Z,61.79
2023-03-10T10:43:59.617Z,58.76
2023-03-10T10:49:32.084Z,61.84
2023-03-10T10:54:59.494Z,60.81
2023-03-10T11:00:30.145Z,59.21
2023-03-10T11:05:56.418Z,61.35
2023-03-10T11:11:44.369Z,61.83
2023-03-10T11:17:50.104Z,58.40
2023-03-10T11:23:32.572Z,60.16
2023-03-10T11:29:34.895Z,61.67
2023-03-10T11:35:00.979Z,60.41
2023-03-10T11:40:49.497Z,57.47
2023-03-10T11:46:25.302Z,59.88
2023-03-10T11:51:59.001Z,62.12
2023-03-10T11:57:28.705Z,59.53
2023-03-10T12:02:55.706Z,58.10
2023-03-10T12:08:23.152Z,60.00
2023-03-10T12:13:52.658Z,61.24
2023-03-10T12:19:16.861Z,62.05
2023-03-10T12:24:48.454Z,62.29
2023-03-10T12:30:48.752Z,57.35
2023-03-10T12:36:34.161Z,59.02
2023-03-10T12:42:04.108Z,60.01
2023-03-10T12:47:45.584Z,59.73
2023-03-10T12:53:23.242Z,59.70
2023-03-10T12:58:55.328Z,59.37
2023-03-10T13:04:23.441Z,59.00
2023-03-10T13:09:50.543Z,58.21
2023-03-10T13:15:29.979Z,57.52
2023-03-10T13:20:54.215Z,56.62
2023-03-10T13:26:18.377Z,56.69
2023-03-10T13:31:53.094Z,56.87
2023-03-10T13:37:18.467Z,57.28
2023-03-10T13:42:44.659Z,56.83
2023-03-10T13:48:14.091Z,56.53
2023-03-10T13:53:38.020Z,56.54
2023-03-10T13:59:03.909Z,56.76
2023-03-10T14:04:55.349Z,57.15
2023-03-10T14:10:21.510Z,57.56
2023-03-10T14:15:55.368Z,55.82
2023-03-10T14:21:39.176Z,56.01
2023-03-10T14:27:03.076Z,56.96
2023-03-10T14:32:27.807Z,57.85
2023-03-10T14:37:53.453Z,57.91
2023-03-10T14:43:22.932Z,58.04
2023-03-10T14:48:47.607Z,57.91
2023-03-10T14:54:31.937Z,58.21
2023-03-10T14:59:56.178Z,58.06
2023-03-10T15:05:23.677Z,58.57
2023-03-10T15:11:06.542Z,58.90
2023-03-10T15:33:34.252Z,59.24
2023-03-10T15:39:03.875Z,59.12
2023-03-10T15:45:03.630Z,59.36
2023-03-10T15:51:28.554Z,59.72
2023-03-10T15:56:58.248Z,59.60
2023-03-10T16:02:22.950Z,59.95
2023-03-10T16:07:49.423Z,60.30
2023-03-10T16:13:14.595Z,60.72
2023-03-10T16:18:40.519Z,61.18
2023-03-10T16:24:05.861Z,61.28
2023-03-10T16:29:30.639Z,62.19
2023-03-10T16:34:57.247Z,63.50
2023-03-10T16:40:21.676Z,59.78
2023-03-10T16:45:49.070Z,58.73
2023-03-10T16:51:28.155Z,62.83
2023-03-10T16:56:57.495Z,64.75
2023-03-10T17:02:26.077Z,62.45
2023-03-10T17:07:56.083Z,61.99
2023-03-10T17:13:21.369Z,63.93
2023-03-10T17:18:46.252Z,63.84
2023-03-10T17:24:11.188Z,60.31
2023-03-10T17:29:36.140Z,59.02
2023-03-10T17:35:00.491Z,63.95
2023-03-10T17:40:24.518Z,62.39
2023-03-10T17:45:58.885Z,61.36
2023-03-10T17:51:29.806Z,60.79
2023-03-10T17:56:54.173Z,60.36
2023-03-10T18:02:18.477Z,60.09
2023-03-10T18:07:42.936Z,60.21
2023-03-10T18:13:10.430Z,59.87
2023-03-10T18:18:34.863Z,58.01
2023-03-10T18:23:59.760Z,60.32
2023-03-10T18:29:24.109Z,66.55
2023-03-10T18:34:48.354Z,64.58
2023-03-10T18:40:16.328Z,62.47
2023-03-10T18:45:41.273Z,61.47
2023-03-10T18:51:06.562Z,61.11
2023-03-10T18:56:31.811Z,60.57
2023-03-10T19:01:56.028Z,60.33
2023-03-10T19:07:20.961Z,60.59
2023-03-10T19:12:45.247Z,60.16
2023-03-10T19:18:09.787Z,55.50
2023-03-10T19:23:35.453Z,54.81
2023-03-10T19:29:00.600Z,58.07
2023-03-10T19:34:26.286Z,65.97
2023-03-10T19:39:51.070Z,66.91
2023-03-10T19:45:18.206Z,63.71
2023-03-10T19:50:42.738Z,62.32
2023-03-10T19:56:08.234Z,61.04
2023-03-10T20:01:32.952Z,60.89
2023-03-10T20:06:57.494Z,60.82
2023-03-10T20:12:21.978Z,61.02
2023-03-10T20:17:46.900Z,60.77
2023-03-10T20:23:11.456Z,60.20
2023-03-10T20:28:37.456Z,60.17
2023-03-10T20:34:04.421Z,60.45
2023-03-10T20:39:28.387Z,60.36
2023-03-10T20:44:52.735Z,60.02
2023-03-10T20:50:18.064Z,59.78
2023-03-10T20:55:42.906Z,59.02
2023-03-10T21:01:07.556Z,60.18
2023-03-10T21:06:32.665Z,65.27
2023-03-10T21:11:57.070Z,64.72
2023-03-10T21:17:21.481Z,62.20
2023-03-10T21:22:46.790Z,60.91
2023-03-10T21:28:10.746Z,60.66
2023-03-10T21:33:35.733Z,60.09
2023-03-10T21:39:00.353Z,60.20
2023-03-10T21:44:24.451Z,60.81
2023-03-10T21:49:49.268Z,61.32
2023-03-10T21:55:18.772Z,61.45
2023-03-10T22:00:43.170Z,61.75
2023-03-10T22:06:08.846Z,62.34
2023-03-10T22:11:33.656Z,62.46
2023-03-10T22:16:57.971Z,62.46
2023-03-10T22:22:23.435Z,62.82
2023-03-10T22:27:54.132Z,63.10
2023-03-10T22:33:18.560Z,63.16
2023-03-10T22:38:43.509Z,63.61
2023-03-10T22:44:08.163Z,63.69
2023-03-10T22:49:33.427Z,63.69
2023-03-10T22:54:59.886Z,63.74
2023-03-10T23:00:24.570Z,63.86
2023-03-10T23:05:48.542Z,64.04
2023-03-10T23:11:14.612Z,65.13
2023-03-10T23:16:39.130Z,65.70
2023-03-10T23:22:04.126Z,66.22
2023-03-10T23:27:28.061Z,66.37
2023-03-10T23:32:53.800Z,66.10
2023-03-10T23:38:18.480Z,65.84
2023-03-10T23:43:43.799Z,65.29
2023-03-10T23:49:09.121Z,65.08
2023-03-10T23:54:33.008Z,64.11
2023-03-10T23:59:57.835Z,64.39
